Clover Valley, Nevada Weather observations

Data are for 10 minute period ending at time listed.
 Day   Time   Solar   Ave.   Ave.  Ave.  Vector  Max.   Baro.   Total    
  of    of     Rad.   Air    Rel.  Wind   Wind   Wind  Press.  Precip.   
Year   Day            Temp.  Hum.  Speed  Dir.   Gust                    
2014   (PST)  Kw/m2    F      %     mph   deg.    mph    mb.     in.     
-------------------------------------------------------------------------
 265   14:20   100.00  99999.0   99999  99999.0   99999   99999.0   99999.0   99999.00 
 265   14:30   100.00  99999.0   99999  99999.0   99999   99999.0   99999.0   99999.00 
 265   14:40   100.00  99999.0   99999  99999.0   99999   99999.0   99999.0   99999.00 
 265   14:50   100.00  99999.0   99999  99999.0   99999   99999.0   99999.0   99999.00 
 265   15:00   100.00  99999.0   99999  99999.0   99999   99999.0   99999.0   99999.00 
 265   15:10   100.00  99999.0   99999  99999.0   99999   99999.0   99999.0   99999.00 
 265   15:20   100.00  99999.0   99999  99999.0   99999   99999.0   99999.0   99999.00 
 265   15:30   100.00  99999.0   99999  99999.0   99999   99999.0   99999.0   99999.00 
 265   15:40   100.00  99999.0   99999  99999.0   99999   99999.0   99999.0   99999.00 
 265   15:50   100.00  99999.0   99999  99999.0   99999   99999.0   99999.0   99999.00 
 265   16:00   100.00  99999.0   99999  99999.0   99999   99999.0   99999.0   99999.00 
 265   16:10   100.00  99999.0   99999  99999.0   99999   99999.0   99999.0   99999.00 
 265   16:20   100.00  99999.0   99999  99999.0   99999   99999.0   99999.0   99999.00 
 265   16:30   100.00  99999.0   99999  99999.0   99999   99999.0   99999.0   99999.00 
 265   16:40   100.00  99999.0   99999  99999.0   99999   99999.0   99999.0   99999.00 
 265   16:50   100.00  99999.0   99999  99999.0   99999   99999.0   99999.0   99999.00 
 265   17:00   100.00  99999.0   99999  99999.0   99999   99999.0   99999.0   99999.00 
 265   17:10   100.00  99999.0   99999  99999.0   99999   99999.0   99999.0   99999.00 
 265   17:20   100.00  99999.0   99999  99999.0   99999   99999.0   99999.0   99999.00 
 265   17:30   100.00  99999.0   99999  99999.0   99999   99999.0   99999.0   99999.00 
 265   17:40   100.00  99999.0   99999  99999.0   99999   99999.0   99999.0   99999.00 
 265   17:50   100.00  99999.0   99999  99999.0   99999   99999.0   99999.0   99999.00 
 265   18:00   100.00  99999.0   99999  99999.0   99999   99999.0   99999.0   99999.00 
 265   18:10   100.00  99999.0   99999  99999.0   99999   99999.0   99999.0   99999.00 
 265   18:20   100.00  99999.0   99999  99999.0   99999   99999.0   99999.0   99999.00 
 265   18:30   100.00  99999.0   99999  99999.0   99999   99999.0   99999.0   99999.00 
 265   18:40   100.00  99999.0   99999  99999.0   99999   99999.0   99999.0   99999.00 
 265   18:50   100.00  99999.0   99999  99999.0   99999   99999.0   99999.0   99999.00 
 265   19:00   100.00  99999.0   99999  99999.0   99999   99999.0   99999.0   99999.00 
 265   19:10   100.00  99999.0   99999  99999.0   99999   99999.0   99999.0   99999.00 
 265   19:20   100.00  99999.0   99999  99999.0   99999   99999.0   99999.0   99999.00 
 265   19:30   100.00  99999.0   99999  99999.0   99999   99999.0   99999.0   99999.00 
 265   19:40   100.00  99999.0   99999  99999.0   99999   99999.0   99999.0   99999.00 
 265   19:50   100.00  99999.0   99999  99999.0   99999   99999.0   99999.0   99999.00 
 265   20:00   100.00  99999.0   99999  99999.0   99999   99999.0   99999.0   99999.00 
 265   20:10   100.00  99999.0   99999  99999.0   99999   99999.0   99999.0   99999.00 
 265   20:20   100.00  99999.0   99999  99999.0   99999   99999.0   99999.0   99999.00 
 265   20:30   100.00  99999.0   99999  99999.0   99999   99999.0   99999.0   99999.00 
 265   20:40   100.00  99999.0   99999  99999.0   99999   99999.0   99999.0   99999.00 
 265   20:50   100.00  99999.0   99999  99999.0   99999   99999.0   99999.0   99999.00 
 265   21:00   100.00  99999.0   99999  99999.0   99999   99999.0   99999.0   99999.00 
 265   21:10   100.00  99999.0   99999  99999.0   99999   99999.0   99999.0   99999.00 
 265   21:20   100.00  99999.0   99999  99999.0   99999   99999.0   99999.0   99999.00 
 265   21:30   100.00  99999.0   99999  99999.0   99999   99999.0   99999.0   99999.00 
 265   21:40   100.00  99999.0   99999  99999.0   99999   99999.0   99999.0   99999.00 
 265   21:50   100.00  99999.0   99999  99999.0   99999   99999.0   99999.0   99999.00 
 265   22:00   100.00  99999.0   99999  99999.0   99999   99999.0   99999.0   99999.00 
 265   22:10   100.00  99999.0   99999  99999.0   99999   99999.0   99999.0   99999.00 
 265   22:20   100.00  99999.0   99999  99999.0   99999   99999.0   99999.0   99999.00 
 265   22:30   100.00  99999.0   99999  99999.0   99999   99999.0   99999.0   99999.00 
 265   22:40   100.00  99999.0   99999  99999.0   99999   99999.0   99999.0   99999.00 
 265   22:50   100.00  99999.0   99999  99999.0   99999   99999.0   99999.0   99999.00 
 265   23:00   100.00  99999.0   99999  99999.0   99999   99999.0   99999.0   99999.00 
 265   23:10   100.00  99999.0   99999  99999.0   99999   99999.0   99999.0   99999.00 
 265   23:20   100.00  99999.0   99999  99999.0   99999   99999.0   99999.0   99999.00 
 265   23:30   100.00  99999.0   99999  99999.0   99999   99999.0   99999.0   99999.00 
 265   23:40   100.00  99999.0   99999  99999.0   99999   99999.0   99999.0   99999.00 
 265   23:50   100.00  99999.0   99999  99999.0   99999   99999.0   99999.0   99999.00 
 266    0:00   100.00  99999.0   99999  99999.0   99999   99999.0   99999.0   99999.00 
 266    0:10   100.00  99999.0   99999  99999.0   99999   99999.0   99999.0   99999.00 
 266    0:20   100.00  99999.0   99999  99999.0   99999   99999.0   99999.0   99999.00 
 266    0:30   100.00  99999.0   99999  99999.0   99999   99999.0   99999.0   99999.00 
 266    0:40   100.00  99999.0   99999  99999.0   99999   99999.0   99999.0   99999.00 
 266    0:50   100.00  99999.0   99999  99999.0   99999   99999.0   99999.0   99999.00 
 266    1:00   100.00  99999.0   99999  99999.0   99999   99999.0   99999.0   99999.00 
 266    1:10   100.00  99999.0   99999  99999.0   99999   99999.0   99999.0   99999.00 
 266    1:20   100.00  99999.0   99999  99999.0   99999   99999.0   99999.0   99999.00 
 266    1:30   100.00  99999.0   99999  99999.0   99999   99999.0   99999.0   99999.00 
 266    1:40   100.00  99999.0   99999  99999.0   99999   99999.0   99999.0   99999.00 
 266    1:50   100.00  99999.0   99999  99999.0   99999   99999.0   99999.0   99999.00 
 266    2:00   100.00  99999.0   99999  99999.0   99999   99999.0   99999.0   99999.00 
 266    2:10   100.00  99999.0   99999  99999.0   99999   99999.0   99999.0   99999.00 
 266    2:20   0.00   42.8    93    2.1   318     3.4   829.7    0.00 
 266    2:30   0.00   42.6    94    1.4   351     2.5   829.8    0.00 
 266    2:40   0.00   42.5    94    2.0     9     2.7   829.9    0.00 
 266    2:50   0.00   42.2    94    1.8    23     2.4   829.9    0.00 
 266    3:00   0.00   42.5    95    1.6   353     2.3   829.9    0.00 
 266    3:10   0.00   42.5    94    1.5   328     2.1   829.9    0.00 
 266    3:20   0.00   41.8    94    2.8   328     3.9   829.9    0.00 
 266    3:30   0.00   41.2    94    2.8   321     3.4   830.0    0.00 
 266    3:40   0.00   40.8    95    3.1   331     3.7   830.0    0.00 
 266    3:50   0.00   40.7    95    2.5   352     3.0   830.1    0.00 
 266    4:00   0.00   40.8    95    2.8   348     3.4   830.0    0.00 
 266    4:10   0.00   40.8    95    2.6   336     3.7   830.0    0.00 
 266    4:20   0.00   40.3    95    3.4   319     4.9   830.0    0.00 
 266    4:30   0.00   40.5    95    3.2   326     4.1   830.1    0.00 
 266    4:40   0.00   40.7    96    2.4   342     3.0   830.1    0.00 
 266    4:50   0.00   40.9    96    2.6   339     3.1   830.1    0.00 
 266    5:00   0.00   41.3    96    2.1     1     2.6   830.1    0.00 
 266    5:10   0.00   41.0    95    2.1   354     2.9   830.2    0.00 
 266    5:20   0.00   40.3    95    2.6   324     3.2   830.3    0.00 
 266    5:30   0.00   40.1    96    2.2   327     3.9   830.4    0.00 
 266    5:40   0.00   40.6    96    2.4   352     3.9   830.5    0.00 
 266    5:50   0.00   40.8    95    2.1    23     3.0   830.5    0.00 
 266    6:00   0.00   41.7    96    1.4   353     2.5   830.7    0.00 
 266    6:10   0.00   44.0    95    0.4   330     1.2   830.8    0.00 
 266    6:20   0.00   45.8    93    0.6   343     1.3   830.8    0.00 
 266    6:30   0.00   46.2    93    0.8     6     2.0   830.8    0.00 
 266    6:40   0.00   45.6    93    1.4   109     1.9   830.8    0.00 
 266    6:50   0.07   47.9    92    0.5   107     1.5   830.9    0.00 
 266    7:00   0.02   50.8    85    0.6    54     1.6   830.9    0.00 
 266    7:10   0.12   51.5    84    0.8    76     2.0   831.0    0.00 
 266    7:20   0.17   53.2    81    0.2    95     1.2   831.1    0.00 
 266    7:30   0.27   54.0    80    0.1   101     0.8   831.2    0.00 
 266    7:40   0.34   55.4    78    0.1   310     0.9   831.4    0.00 
 266    7:50   0.39   55.9    78    0.6    46     1.9   831.6    0.00 
 266    8:00   0.44   57.2    76    0.9   129     2.9   831.6    0.00 
 266    8:10   0.27   57.3    78    1.1    82     2.9   831.7    0.00 
 266    8:20   0.31   58.1    75    0.2    99     1.8   831.7    0.00 
 266    8:30   0.28   59.5    69    0.7    15     2.2   831.8    0.00 
 266    8:40   0.49   59.7    72    2.2    59     3.9   831.8    0.00 
 266    8:50   0.43   60.4    68    1.2   324     2.6   831.8    0.00 
 266    9:00   0.55   60.7    70    1.9    17     4.7   831.8    0.00 
 266    9:10   0.50   62.6    66    0.8    61     2.9   831.7    0.00 
 266    9:20   0.03   64.0    64    1.4   105     4.7   831.6    0.00 
 266    9:30   0.55   66.5    58    1.4   146     3.8   831.6    0.00 
 266    9:40   0.28   68.4    53    2.1   212     6.6   831.6    0.00 
 266    9:50   0.00   68.7    53    3.4   146     7.2   831.5    0.00 
 266   10:00   0.00   70.6    47    4.9   183    10.7   831.3    0.00 
 266   10:10   0.35   71.9    42    8.9   185    17.0   831.2    0.00 
 266   10:20   0.68   72.5    41   10.2   184    13.9   831.2    0.00 
 266   10:30   0.59   72.0    42    9.3   184    13.3   831.0    0.00 
 266   10:40   0.73   72.8    40   10.8   178    14.7   831.0    0.00 
 266   10:50   0.74   73.1    41    9.9   175    15.1   831.0    0.00 
 266   11:00   0.76   73.5    39   10.7   171    15.1   830.9    0.00 
 266   11:10   0.76   74.2    39    9.6   180    15.1   830.8    0.00 
 266   11:20   0.77   74.6    37    9.5   164    14.2   830.7    0.00 
 266   11:30   0.05   75.4    36   10.8   190    17.0   830.5    0.00 
 266   11:40   0.00   75.3    36    9.9   191    14.7   830.4    0.00 
 266   11:50   0.11   74.9    37    8.7   192    15.6   830.2    0.00 
 266   12:00   0.70   74.3    36    8.4   192    14.6   830.2    0.00 
 266   12:10   0.70   76.6    33    7.7   196    14.4   830.1    0.00 
 266   12:20   0.76   76.7    33    9.5   182    14.2   829.9    0.00 
 266   12:30   0.74   77.2    31    8.2   180    14.0   829.8    0.00 
 266   12:40   0.64   77.0    32    6.3   214    13.0   829.7    0.00 
 266   12:50   0.55   77.2    31    7.5   184    14.5   829.6    0.00 
 266   13:00   0.34   74.2    37    6.2   210    12.5   829.6    0.00 
 266   13:10   0.60   76.9    31    5.1   204    13.4   829.5    0.00 
 266   13:20   0.70   78.6    27    9.1   180    14.9   829.4    0.00 
 266   13:30   0.66   78.2    28   10.3   162    15.6   829.2    0.00 
 266   13:40   0.65   78.9    26   10.0   178    17.5   829.0    0.00 
 266   13:50   0.64   78.6    26    9.4   184    15.6   828.9    0.00 
 266   14:00   0.62   79.5    24    8.3   177    16.7   828.7    0.00 
 266   14:10   0.59   79.2    26   10.0   192    16.7   828.7    0.00 

Return to Clover Valley graphs page.


Western Regional Climate Center,wrcc@dri.edu